createdAt,value
2019-06-10T00:01:21.254Z,5.67
2019-06-10T00:03:51.428Z,8.93
2019-06-10T00:06:20.986Z,9.85
2019-06-10T00:08:50.617Z,7.53
2019-06-10T00:11:21.304Z,6.62
2019-06-10T00:13:50.695Z,8.40
2019-06-10T00:16:20.870Z,8.80
2019-06-10T00:18:50.993Z,9.25
2019-06-10T00:21:21.690Z,7.30
2019-06-10T00:23:51.858Z,4.53
2019-06-10T00:26:21.642Z,5.97
2019-06-10T00:28:51.362Z,6.53
2019-06-10T00:31:20.730Z,8.00
2019-06-10T00:33:51.766Z,6.78
2019-06-10T00:36:21.536Z,8.38
2019-06-10T00:38:51.819Z,6.97
2019-06-10T00:41:21.963Z,7.30
2019-06-10T00:43:51.742Z,7.12
2019-06-10T00:46:21.209Z,9.85
2019-06-10T00:48:50.895Z,8.83
2019-06-10T00:51:20.989Z,8.63
2019-06-10T00:53:51.438Z,6.97
2019-06-10T00:56:21.640Z,10.90
2019-06-10T00:58:51.442Z,6.67
2019-06-10T01:01:22.000Z,8.28
2019-06-10T01:03:50.963Z,9.70
2019-06-10T01:06:21.397Z,7.90
2019-06-10T01:08:51.228Z,9.00
2019-06-10T01:11:26.466Z,6.50
2019-06-10T01:13:50.857Z,6.83
2019-06-10T01:16:21.489Z,7.37
2019-06-10T01:18:52.637Z,7.80
2019-06-10T01:21:41.434Z,6.42
2019-06-10T01:24:11.639Z,5.67
2019-06-10T01:26:41.163Z,5.42
2019-06-10T01:29:10.292Z,6.03
2019-06-10T01:31:41.842Z,6.50
2019-06-10T01:34:11.995Z,9.80
2019-06-10T01:36:40.569Z,8.38
2019-06-10T01:39:11.606Z,6.83
2019-06-10T01:41:40.971Z,6.85
2019-06-10T01:44:11.552Z,6.90
2019-06-10T01:46:41.049Z,6.55
2019-06-10T01:49:11.742Z,7.43
2019-06-10T01:51:41.222Z,5.53
2019-06-10T01:54:11.965Z,8.53
2019-06-10T01:56:40.851Z,6.23
2019-06-10T01:59:12.260Z,8.48
2019-06-10T02:01:54.985Z,6.42
2019-06-10T02:04:23.413Z,9.15
2019-06-10T02:06:51.835Z,6.20
2019-06-10T02:09:23.043Z,4.08
2019-06-10T02:11:51.380Z,5.90
2019-06-10T02:14:23.931Z,4.72
2019-06-10T02:16:50.676Z,6.62
2019-06-10T02:19:22.745Z,5.35
2019-06-10T02:21:51.058Z,4.65
2019-06-10T02:24:22.042Z,5.62
2019-06-10T02:26:51.627Z,6.22
2019-06-10T02:29:22.196Z,5.93
2019-06-10T02:31:52.124Z,7.33
2019-06-10T02:34:26.883Z,7.62
2019-06-10T02:36:53.645Z,6.90
2019-06-10T02:39:28.033Z,8.73
2019-06-10T02:41:53.690Z,7.17
2019-06-10T02:44:31.883Z,7.53
2019-06-10T02:46:54.495Z,5.57
2019-06-10T02:49:42.800Z,6.33
2019-06-10T02:52:22.653Z,5.25
2019-06-10T02:54:48.531Z,6.20
2019-06-10T02:57:18.776Z,7.37
2019-06-10T02:59:47.314Z,5.33
2019-06-10T03:02:15.739Z,6.22
2019-06-10T03:04:44.149Z,6.12
2019-06-10T03:07:13.717Z,8.15
2019-06-10T03:09:42.821Z,5.80
2019-06-10T03:12:12.226Z,7.05
2019-06-10T03:14:42.264Z,5.12
2019-06-10T03:17:15.656Z,6.62
2019-06-10T03:19:50.342Z,4.25
2019-06-10T03:22:14.317Z,7.20
2019-06-10T03:24:42.740Z,7.80
2019-06-10T03:27:12.660Z,4.97
2019-06-10T03:29:42.149Z,6.75
2019-06-10T03:32:14.489Z,7.40
2019-06-10T03:34:45.906Z,7.93
2019-06-10T03:37:12.803Z,8.55
2019-06-10T03:39:42.728Z,6.95
2019-06-10T03:42:12.614Z,5.22
2019-06-10T03:44:43.074Z,8.10
2019-06-10T03:47:12.175Z,8.28
2019-06-10T03:49:49.984Z,10.85
2019-06-10T03:52:12.969Z,7.72
2019-06-10T03:54:43.845Z,5.72
2019-06-10T03:57:12.292Z,8.60
2019-06-10T03:59:42.228Z,6.08
2019-06-10T04:02:12.744Z,6.78
2019-06-10T04:04:42.841Z,8.28
2019-06-10T04:07:14.127Z,7.15
2019-06-10T04:09:42.497Z,8.87
2019-06-10T04:12:32.587Z,6.83
2019-06-10T04:15:02.893Z,5.90
2019-06-10T04:17:33.156Z,6.80
2019-06-10T04:20:09.276Z,6.95
2019-06-10T04:22:32.948Z,5.33
2019-06-10T04:25:03.083Z,5.53
2019-06-10T04:27:32.862Z,7.97
2019-06-10T04:30:03.263Z,8.65
2019-06-10T04:32:32.250Z,5.40
2019-06-10T04:35:02.271Z,8.60
2019-06-10T04:37:32.546Z,7.92
2019-06-10T04:40:02.885Z,6.10
2019-06-10T04:42:32.958Z,5.55
2019-06-10T04:45:03.163Z,6.03
2019-06-10T04:47:33.250Z,6.42
2019-06-10T04:50:03.141Z,7.85
2019-06-10T04:52:32.880Z,7.72
2019-06-10T04:55:04.457Z,5.12
2019-06-10T04:57:33.015Z,5.95
2019-06-10T05:00:04.084Z,8.48
2019-06-10T05:02:33.043Z,5.53
2019-06-10T05:05:02.926Z,8.93
2019-06-10T05:07:36.505Z,5.50
2019-06-10T05:10:03.278Z,6.67
2019-06-10T05:12:32.785Z,4.80
2019-06-10T05:15:03.568Z,5.12
2019-06-10T05:17:34.083Z,5.33
2019-06-10T05:20:02.548Z,5.30
2019-06-10T05:22:32.819Z,5.55
2019-06-10T05:25:02.519Z,5.35
2019-06-10T05:27:32.984Z,4.97
2019-06-10T05:30:02.258Z,5.25
2019-06-10T05:32:33.273Z,4.35
2019-06-10T05:35:03.510Z,3.83
2019-06-10T05:37:33.667Z,5.20
2019-06-10T05:40:02.224Z,5.58
2019-06-10T05:42:34.036Z,4.22
2019-06-10T05:45:03.162Z,4.70
2019-06-10T05:47:35.630Z,3.62
2019-06-10T05:50:03.266Z,4.62
2019-06-10T05:52:33.817Z,4.95
2019-06-10T05:55:02.940Z,3.87
2019-06-10T05:57:33.500Z,6.90
2019-06-10T06:00:10.728Z,5.55
2019-06-10T06:02:33.973Z,3.00
2019-06-10T06:05:02.656Z,3.83
2019-06-10T06:07:33.885Z,3.90
2019-06-10T06:10:02.476Z,4.60
2019-06-10T06:12:33.899Z,3.77
2019-06-10T06:15:02.428Z,2.95
2019-06-10T06:17:32.770Z,2.67
2019-06-10T06:20:02.723Z,3.42
2019-06-10T06:22:33.776Z,2.65
2019-06-10T06:25:03.705Z,2.52
2019-06-10T06:27:33.824Z,3.17
2019-06-10T06:30:06.989Z,3.27
2019-06-10T06:32:33.687Z,3.72
2019-06-10T06:35:02.276Z,2.70
2019-06-10T06:37:34.699Z,2.60
2019-06-10T06:40:02.790Z,2.92
2019-06-10T06:42:33.528Z,2.97
2019-06-10T06:45:03.038Z,2.92
2019-06-10T06:47:34.029Z,2.92
2019-06-10T06:50:02.685Z,3.17
2019-06-10T06:53:07.623Z,3.02
2019-06-10T06:55:23.258Z,2.77
2019-06-10T06:57:52.861Z,3.47
2019-06-10T07:00:43.122Z,3.85
2019-06-10T07:02:55.886Z,3.50
2019-06-10T07:05:24.297Z,3.60
2019-06-10T07:07:52.801Z,4.03
2019-06-10T07:10:24.261Z,3.77
2019-06-10T07:12:52.849Z,3.42
2019-06-10T07:15:26.289Z,4.47
2019-06-10T07:17:55.057Z,2.80
2019-06-10T07:20:23.507Z,2.90
2019-06-10T07:22:53.287Z,4.28
2019-06-10T07:25:22.966Z,4.20
2019-06-10T07:27:52.685Z,3.10
2019-06-10T07:30:22.970Z,2.80
2019-06-10T07:32:52.826Z,2.83
2019-06-10T07:35:22.186Z,3.08
2019-06-10T07:37:52.357Z,2.60
2019-06-10T07:40:22.278Z,2.83
2019-06-10T07:42:52.904Z,2.47
2019-06-10T07:45:22.114Z,2.02
2019-06-10T07:47:52.312Z,2.55
2019-06-10T07:50:22.721Z,2.27
2019-06-10T07:52:52.922Z,2.92
2019-06-10T07:55:22.168Z,3.55
2019-06-10T07:57:52.924Z,2.62
2019-06-10T08:00:22.737Z,3.20
2019-06-10T08:02:52.989Z,2.13
2019-06-10T08:05:23.411Z,2.40
2019-06-10T08:07:51.406Z,2.33
2019-06-10T08:10:19.927Z,4.00
2019-06-10T08:12:48.489Z,2.10
2019-06-10T08:15:16.938Z,2.20
2019-06-10T08:17:45.761Z,3.83
2019-06-10T08:20:18.861Z,2.20
2019-06-10T08:22:52.515Z,2.55
2019-06-10T08:25:17.449Z,4.28
2019-06-10T08:27:47.808Z,3.67
2019-06-10T08:30:23.191Z,3.20
2019-06-10T08:32:46.839Z,1.80
2019-06-10T08:35:16.707Z,2.80
2019-06-10T08:37:46.294Z,3.77
2019-06-10T08:40:15.526Z,2.67
2019-06-10T08:42:46.812Z,2.80
2019-06-10T08:45:14.076Z,4.77
2019-06-10T08:47:45.694Z,2.17
2019-06-10T08:50:13.008Z,5.07
2019-06-10T08:52:56.037Z,2.70
2019-06-10T08:55:33.335Z,2.20
2019-06-10T08:58:02.803Z,3.73
2019-06-10T09:00:33.231Z,3.43
2019-06-10T09:03:04.002Z,2.40
2019-06-10T09:05:32.523Z,2.00
2019-06-10T09:08:02.836Z,1.60
2019-06-10T09:10:33.790Z,2.10
2019-06-10T09:13:22.381Z,1.70
2019-06-10T09:16:10.529Z,2.23
2019-06-10T09:18:23.226Z,2.83
2019-06-10T09:20:55.305Z,3.63
2019-06-10T09:23:23.153Z,3.43
2019-06-10T09:25:54.457Z,2.83
2019-06-10T09:28:23.480Z,2.33
2019-06-10T09:30:58.493Z,2.67
2019-06-10T09:33:23.057Z,2.33
2019-06-10T09:35:54.848Z,3.03
2019-06-10T09:38:22.307Z,5.43
2019-06-10T09:40:59.217Z,3.57
2019-06-10T09:43:22.690Z,2.97
2019-06-10T09:45:55.427Z,2.53
2019-06-10T09:48:22.966Z,3.73
2019-06-10T09:50:57.951Z,3.60
2019-06-10T09:53:33.526Z,3.97
2019-06-10T09:55:55.416Z,2.50
2019-06-10T09:58:23.195Z,7.53
2019-06-10T10:00:57.580Z,2.33
2019-06-10T10:03:23.931Z,4.27
2019-06-10T10:05:59.286Z,3.63
2019-06-10T10:08:23.758Z,2.73
2019-06-10T10:10:58.488Z,2.63
2019-06-10T10:13:22.679Z,4.90
2019-06-10T10:15:53.875Z,2.20
2019-06-10T10:18:23.392Z,3.63
2019-06-10T10:20:56.530Z,3.57
2019-06-10T10:23:22.663Z,2.50
2019-06-10T10:25:56.592Z,4.80
2019-06-10T10:28:23.058Z,4.37
2019-06-10T10:30:57.221Z,4.47
2019-06-10T10:33:26.849Z,3.83
2019-06-10T10:36:13.269Z,4.47
2019-06-10T10:38:42.693Z,2.53
2019-06-10T10:41:13.407Z,2.37
2019-06-10T10:43:43.610Z,4.90
2019-06-10T10:46:13.850Z,2.93
2019-06-10T10:48:42.890Z,4.20
2019-06-10T10:51:13.022Z,3.93
2019-06-10T10:53:48.261Z,4.07
2019-06-10T10:56:14.307Z,3.50
2019-06-10T10:58:45.332Z,3.67
2019-06-10T11:01:15.151Z,3.33
2019-06-10T11:03:46.119Z,4.43
2019-06-10T11:06:14.882Z,7.37
2019-06-10T11:08:45.295Z,2.50
2019-06-10T11:11:13.909Z,3.90
2019-06-10T11:13:43.237Z,2.80
2019-06-10T11:16:11.955Z,3.00
2019-06-10T11:18:42.311Z,2.90
2019-06-10T11:21:13.028Z,3.33
2019-06-10T11:23:43.628Z,2.80
2019-06-10T11:26:12.965Z,4.53
2019-06-10T11:28:42.865Z,5.90
2019-06-10T11:31:13.947Z,3.63
2019-06-10T11:33:43.531Z,3.33
2019-06-10T11:36:31.366Z,2.70
2019-06-10T11:38:59.816Z,2.77
2019-06-10T11:41:28.526Z,4.83
2019-06-10T11:43:59.241Z,3.33
2019-06-10T11:46:27.166Z,5.87
2019-06-10T11:48:57.625Z,3.73
2019-06-10T11:51:25.715Z,4.93
2019-06-10T11:53:57.144Z,4.60
2019-06-10T11:56:24.603Z,2.93
2019-06-10T11:58:59.173Z,5.40
2019-06-10T12:01:28.383Z,3.80
2019-06-10T12:03:58.824Z,2.83
2019-06-10T12:06:46.282Z,6.70
2019-06-10T12:09:14.712Z,4.77
2019-06-10T12:11:43.894Z,3.30
2019-06-10T12:14:12.961Z,2.97
2019-06-10T12:19:12.775Z,3.87
2019-06-10T12:21:43.466Z,4.33
2019-06-10T12:24:12.726Z,4.53
2019-06-10T12:26:43.452Z,7.17
2019-06-10T12:29:12.382Z,3.27
2019-06-10T12:31:42.756Z,4.23
2019-06-10T12:34:12.489Z,6.73
2019-06-10T12:36:41.237Z,4.00
2019-06-10T12:39:10.730Z,6.47
2019-06-10T12:41:42.672Z,3.27
2019-06-10T12:44:12.096Z,3.00
2019-06-10T12:46:40.097Z,5.13
2019-06-10T12:49:08.882Z,4.13
2019-06-10T12:51:37.401Z,5.50
2019-06-10T12:54:06.552Z,8.90
2019-06-10T12:56:35.147Z,7.20
2019-06-10T12:59:09.650Z,5.73
2019-06-10T13:01:33.736Z,4.10
2019-06-10T13:04:05.421Z,4.37
2019-06-10T13:06:33.006Z,10.00
2019-06-10T13:09:23.428Z,8.43
2019-06-10T13:11:53.252Z,7.17
2019-06-10T13:14:22.042Z,10.73
2019-06-10T13:16:52.657Z,15.17
2019-06-10T13:19:23.168Z,8.63
2019-06-10T13:21:52.931Z,13.73
2019-06-10T13:24:22.506Z,7.13
2019-06-10T13:26:52.348Z,9.47
2019-06-10T13:29:21.003Z,7.40
2019-06-10T13:31:49.404Z,5.70
2019-06-10T13:34:22.129Z,5.80
2019-06-10T13:36:52.856Z,8.70
2019-06-10T13:39:22.305Z,5.17
2019-06-10T13:41:52.713Z,8.93
2019-06-10T13:44:22.814Z,7.33
2019-06-10T13:47:12.619Z,7.50
2019-06-10T13:49:42.692Z,9.43
2019-06-10T13:52:32.026Z,8.00
2019-06-10T13:55:01.299Z,5.33
2019-06-10T13:57:32.104Z,6.67
2019-06-10T14:00:02.731Z,5.67
2019-06-10T14:02:32.316Z,6.10
2019-06-10T14:05:03.536Z,5.97
2019-06-10T14:07:32.455Z,6.30
2019-06-10T14:10:04.003Z,6.10
2019-06-10T14:12:32.387Z,7.93
2019-06-10T14:15:04.117Z,6.27
2019-06-10T14:17:32.876Z,4.40
2019-06-10T14:20:01.753Z,7.20
2019-06-10T14:22:32.746Z,10.43
2019-06-10T14:25:02.781Z,7.17
2019-06-10T14:27:30.603Z,11.23
2019-06-10T14:29:59.057Z,6.17
2019-06-10T14:32:27.507Z,4.80
2019-06-10T14:34:55.909Z,6.50
2019-06-10T14:37:35.703Z,4.93
2019-06-10T14:39:54.470Z,5.37
2019-06-10T14:42:23.203Z,5.00
2019-06-10T14:44:52.644Z,6.20
2019-06-10T14:47:27.260Z,9.20
2019-06-10T14:49:55.685Z,6.97
2019-06-10T14:52:24.092Z,5.30
2019-06-10T14:54:53.269Z,5.40
2019-06-10T14:57:22.860Z,5.77
2019-06-10T14:59:53.209Z,7.10
2019-06-10T15:02:21.645Z,6.17
2019-06-10T15:04:53.008Z,7.27
2019-06-10T15:07:23.595Z,11.53
2019-06-10T15:09:52.591Z,10.17
2019-06-10T15:12:22.819Z,9.23
2019-06-10T15:14:52.100Z,10.53
2019-06-10T15:17:20.712Z,8.63
2019-06-10T15:19:49.121Z,13.80
2019-06-10T15:22:17.558Z,11.40
2019-06-10T15:24:45.980Z,9.77
2019-06-10T15:27:23.697Z,10.10
2019-06-10T15:29:44.556Z,10.17
2019-06-10T15:32:20.629Z,22.13
2019-06-10T15:34:43.118Z,23.97
2019-06-10T15:37:15.128Z,25.53
2019-06-10T15:39:42.379Z,9.83
2019-06-10T15:49:55.300Z,9.20
2019-06-10T15:52:25.124Z,7.03
2019-06-10T15:54:53.908Z,7.87
2019-06-10T15:57:34.858Z,9.00
2019-06-10T15:59:52.460Z,11.23
2019-06-10T16:02:24.983Z,10.83
2019-06-10T16:04:52.701Z,14.90
2019-06-10T16:07:25.288Z,16.87
2019-06-10T16:09:53.335Z,14.63
2019-06-10T16:12:26.591Z,18.07
2019-06-10T16:14:52.995Z,18.40
2019-06-10T16:17:21.668Z,18.87
2019-06-10T16:19:52.828Z,16.13
2019-06-10T16:22:22.271Z,15.70
2019-06-10T16:24:52.579Z,14.27
2019-06-10T16:27:23.024Z,13.90
2019-06-10T16:29:53.056Z,13.00
2019-06-10T16:32:23.618Z,15.70
2019-06-10T16:34:52.225Z,14.70
2019-06-10T16:37:23.425Z,13.83
2019-06-10T16:39:52.483Z,15.30
2019-06-10T16:42:25.418Z,14.30
2019-06-10T16:45:12.820Z,14.43
2019-06-10T16:47:43.084Z,15.27
2019-06-10T16:50:12.193Z,11.40
2019-06-10T16:52:43.130Z,12.00
2019-06-10T16:55:12.766Z,13.03
2019-06-10T16:57:41.057Z,12.03
2019-06-10T17:00:13.886Z,11.50
2019-06-10T17:02:42.532Z,12.27
2019-06-10T17:05:10.027Z,15.23
2019-06-10T17:07:38.700Z,13.47
2019-06-10T17:10:07.456Z,15.33
2019-06-10T17:12:35.879Z,16.90
2019-06-10T17:15:04.977Z,18.80
2019-06-10T17:17:52.736Z,20.73
2019-06-10T17:20:23.291Z,22.00
2019-06-10T17:22:52.442Z,24.97
2019-06-10T17:25:23.539Z,23.10
2019-06-10T17:27:52.700Z,19.37
2019-06-10T17:30:23.384Z,21.07
2019-06-10T17:32:53.312Z,22.67
2019-06-10T17:35:22.001Z,25.03
2019-06-10T17:37:52.315Z,22.90
2019-06-10T17:40:23.466Z,21.47
2019-06-10T17:42:53.267Z,20.93
2019-06-10T17:45:25.762Z,25.37
2019-06-10T17:47:52.500Z,25.57
2019-06-10T17:50:22.319Z,29.50
2019-06-10T17:52:53.400Z,46.20
2019-06-10T17:55:24.717Z,35.10
2019-06-10T17:57:51.712Z,33.97
2019-06-10T18:00:20.139Z,29.00
2019-06-10T18:02:48.562Z,38.30
2019-06-10T18:05:17.054Z,41.47
2019-06-10T18:07:45.482Z,32.60
2019-06-10T18:10:13.976Z,26.23
2019-06-10T18:12:42.441Z,22.33
2019-06-10T18:15:12.531Z,28.07
2019-06-10T18:17:42.579Z,21.20
2019-06-10T18:20:13.578Z,29.67
2019-06-10T18:22:41.608Z,27.63
2019-06-10T18:25:12.336Z,29.13
2019-06-10T18:27:40.664Z,25.23
2019-06-10T18:30:13.321Z,30.70
2019-06-10T18:32:39.307Z,24.10
2019-06-10T18:35:27.837Z,27.20
2019-06-10T18:37:56.369Z,22.83
2019-06-10T18:40:31.677Z,22.90
2019-06-10T18:42:59.967Z,20.87
2019-06-10T18:45:29.729Z,28.87
2019-06-10T18:47:58.276Z,21.43
2019-06-10T18:50:27.794Z,24.87
2019-06-10T18:52:58.680Z,24.10
2019-06-10T18:55:26.681Z,20.57
2019-06-10T18:57:55.341Z,21.57
2019-06-10T19:00:23.796Z,22.53
2019-06-10T19:03:08.770Z,26.13
2019-06-10T19:05:22.528Z,20.97
2019-06-10T19:07:52.919Z,29.50
2019-06-10T19:10:23.092Z,25.17
2019-06-10T19:12:53.134Z,22.40
2019-06-10T19:15:21.636Z,26.03
2019-06-10T19:17:50.076Z,20.63
2019-06-10T19:20:18.494Z,31.90
2019-06-10T19:22:47.497Z,22.90
2019-06-10T19:25:16.993Z,24.53
2019-06-10T19:27:45.406Z,26.10
2019-06-10T19:30:13.842Z,32.40
2019-06-10T19:32:44.232Z,25.57
2019-06-10T19:35:13.078Z,28.80
2019-06-10T19:37:42.366Z,32.60
2019-06-10T19:40:12.362Z,41.20
2019-06-10T19:42:43.383Z,31.07
2019-06-10T19:45:12.547Z,34.73
2019-06-10T19:47:45.284Z,40.40
2019-06-10T19:50:12.211Z,37.47
2019-06-10T19:52:43.660Z,46.03
2019-06-10T19:55:13.101Z,42.63
2019-06-10T19:57:41.527Z,37.77
2019-06-10T20:00:29.525Z,52.10
2019-06-10T20:02:58.210Z,50.50
2019-06-10T20:05:26.652Z,52.27
2019-06-10T20:07:55.089Z,52.67
2019-06-10T20:10:23.536Z,55.07
2019-06-10T20:12:53.710Z,60.97
2019-06-10T20:15:23.060Z,71.73
2019-06-10T20:17:52.566Z,75.17
2019-06-10T20:20:22.575Z,60.60
2019-06-10T20:22:53.308Z,61.83
2019-06-10T20:25:22.377Z,58.27
2019-06-10T20:27:52.418Z,49.67
2019-06-10T20:30:27.506Z,52.47
2019-06-10T20:32:52.804Z,46.60
2019-06-10T20:35:23.285Z,48.80
2019-06-10T20:37:53.842Z,46.93
2019-06-10T20:40:22.169Z,42.13
2019-06-10T20:42:50.610Z,42.53
2019-06-10T20:45:19.170Z,40.77
2019-06-10T20:47:47.994Z,44.87
2019-06-10T20:50:17.360Z,55.93
2019-06-10T20:52:47.202Z,60.70
2019-06-10T20:55:16.965Z,62.90
2019-06-10T20:57:54.918Z,75.20
2019-06-10T21:00:26.486Z,67.90
2019-06-10T21:02:55.001Z,68.07
2019-06-10T21:05:23.441Z,73.03
2019-06-10T21:07:51.912Z,74.73
2019-06-10T21:10:24.309Z,62.10
2019-06-10T21:12:52.737Z,63.37
2019-06-10T21:15:22.822Z,67.63
2019-06-10T21:17:51.469Z,61.83
2019-06-10T21:20:22.139Z,65.03
2019-06-10T21:22:51.432Z,61.50
2019-06-10T21:25:20.196Z,60.13
2019-06-10T21:27:49.714Z,67.13
2019-06-10T21:30:34.072Z,61.77
2019-06-10T21:32:50.854Z,73.77
2019-06-10T21:35:19.362Z,72.43
2019-06-10T21:37:48.352Z,70.53
2019-06-10T21:40:18.102Z,66.13
2019-06-10T21:42:46.512Z,67.73
2019-06-10T21:45:15.258Z,59.97
2019-06-10T21:47:44.475Z,48.20
2019-06-10T21:50:14.208Z,47.13
2019-06-10T21:52:44.628Z,49.23
2019-06-10T21:55:13.532Z,51.30
2019-06-10T21:57:42.995Z,52.97
2019-06-10T22:00:14.896Z,48.23
2019-06-10T22:02:45.135Z,46.10
2019-06-10T22:05:13.674Z,46.23
2019-06-10T22:08:03.184Z,46.77
2019-06-10T22:10:33.563Z,47.07
2019-06-10T22:13:03.217Z,47.93
2019-06-10T22:15:33.421Z,48.67
2019-06-10T22:18:02.314Z,48.57
2019-06-10T22:20:32.456Z,52.73
2019-06-10T22:23:02.627Z,57.17
2019-06-10T22:25:32.839Z,59.47
2019-06-10T22:28:02.764Z,55.80
2019-06-10T22:30:32.145Z,68.37
2019-06-10T22:33:03.148Z,64.57
2019-06-10T22:35:31.355Z,69.33
2019-06-10T22:37:59.769Z,71.13
2019-06-10T22:40:28.528Z,77.73
2019-06-10T22:42:56.948Z,79.23
2019-06-10T22:45:28.444Z,71.07
2019-06-10T22:47:56.951Z,68.93
2019-06-10T22:50:25.452Z,83.80
2019-06-10T22:52:57.043Z,80.20
2019-06-10T22:55:24.028Z,72.33
2019-06-10T22:57:57.318Z,76.57
2019-06-10T23:00:43.711Z,84.30
2019-06-10T23:03:13.045Z,79.03
2019-06-10T23:06:02.627Z,97.00
2019-06-10T23:08:33.267Z,94.40
2019-06-10T23:11:02.797Z,93.60
2019-06-10T23:13:31.481Z,95.70
2019-06-10T23:16:02.433Z,100.40
2019-06-10T23:18:31.996Z,102.03
2019-06-10T23:21:01.556Z,108.23
2019-06-10T23:23:32.466Z,114.77
2019-06-10T23:26:02.775Z,103.37
2019-06-10T23:28:32.729Z,110.63
2019-06-10T23:31:02.423Z,115.30
2019-06-10T23:33:32.385Z,112.37
2019-06-10T23:36:03.766Z,128.37
2019-06-10T23:38:32.900Z,162.27
2019-06-10T23:41:03.548Z,164.17
2019-06-10T23:43:33.001Z,162.73
2019-06-10T23:46:04.094Z,131.73
2019-06-10T23:48:32.970Z,139.83
2019-06-10T23:51:04.525Z,136.57
2019-06-10T23:53:32.862Z,125.30
2019-06-10T23:56:04.716Z,137.40
2019-06-10T23:58:32.887Z,131.23
